sensor_id;sensor_type;location;lat;lon;timestamp;temperature;humidity
63051;SHT30;49136;47.416;19.402;2023-05-17T00:01:47;14.54;99.99
63051;SHT30;49136;47.416;19.402;2023-05-17T00:04:12;14.54;99.99
63051;SHT30;49136;47.416;19.402;2023-05-17T00:06:37;14.49;99.99
63051;SHT30;49136;47.416;19.402;2023-05-17T00:09:03;14.58;99.99
63051;SHT30;49136;47.416;19.402;2023-05-17T00:11:28;14.49;99.99
63051;SHT30;49136;47.416;19.402;2023-05-17T00:13:54;14.52;99.99
63051;SHT30;49136;47.416;19.402;2023-05-17T00:16:19;14.55;99.99
63051;SHT30;49136;47.416;19.402;2023-05-17T00:18:44;14.58;99.99
63051;SHT30;49136;47.416;19.402;2023-05-17T00:21:10;14.56;99.99
63051;SHT30;49136;47.416;19.402;2023-05-17T00:23:35;14.48;99.99
63051;SHT30;49136;47.416;19.402;2023-05-17T00:26:01;14.42;99.99
63051;SHT30;49136;47.416;19.402;2023-05-17T00:28:26;14.39;99.99
63051;SHT30;49136;47.416;19.402;2023-05-17T00:30:51;14.31;99.99
63051;SHT30;49136;47.416;19.402;2023-05-17T00:33:17;14.30;99.99
63051;SHT30;49136;47.416;19.402;2023-05-17T00:35:42;14.32;99.99
63051;SHT30;49136;47.416;19.402;2023-05-17T00:38:07;14.31;99.99
63051;SHT30;49136;47.416;19.402;2023-05-17T00:40:33;14.32;99.99
63051;SHT30;49136;47.416;19.402;2023-05-17T00:42:58;14.32;99.99
63051;SHT30;49136;47.416;19.402;2023-05-17T00:45:24;14.35;99.99
63051;SHT30;49136;47.416;19.402;2023-05-17T00:47:49;14.35;99.99
63051;SHT30;49136;47.416;19.402;2023-05-17T00:50:15;14.30;99.99
63051;SHT30;49136;47.416;19.402;2023-05-17T00:52:40;14.35;99.99
63051;SHT30;49136;47.416;19.402;2023-05-17T00:55:06;14.39;99.99
63051;SHT30;49136;47.416;19.402;2023-05-17T00:57:32;14.52;99.99
63051;SHT30;49136;47.416;19.402;2023-05-17T00:59:57;14.46;99.99
63051;SHT30;49136;47.416;19.402;2023-05-17T01:02:23;14.41;99.99
63051;SHT30;49136;47.416;19.402;2023-05-17T01:04:49;14.38;99.99
63051;SHT30;49136;47.416;19.402;2023-05-17T01:07:15;14.39;99.99
63051;SHT30;49136;47.416;19.402;2023-05-17T01:09:42;14.41;99.99
63051;SHT30;49136;47.416;19.402;2023-05-17T01:15:14;14.17;99.99
63051;SHT30;49136;47.416;19.402;2023-05-17T01:20:35;14.03;99.99
63051;SHT30;49136;47.416;19.402;2023-05-17T01:26:13;14.16;99.99
63051;SHT30;49136;47.416;19.402;2023-05-17T01:28:43;14.20;99.99
63051;SHT30;49136;47.416;19.402;2023-05-17T01:31:10;14.17;99.99
63051;SHT30;49136;47.416;19.402;2023-05-17T01:33:36;14.20;99.99
63051;SHT30;49136;47.416;19.402;2023-05-17T01:36:01;14.21;99.99
63051;SHT30;49136;47.416;19.402;2023-05-17T01:38:27;14.30;99.99
63051;SHT30;49136;47.416;19.402;2023-05-17T01:43:31;14.25;99.99
63051;SHT30;49136;47.416;19.402;2023-05-17T01:48:37;14.27;99.99
63051;SHT30;49136;47.416;19.402;2023-05-17T01:51:04;14.28;99.99
63051;SHT30;49136;47.416;19.402;2023-05-17T01:53:38;14.27;99.99
63051;SHT30;49136;47.416;19.402;2023-05-17T01:56:07;14.30;99.99
63051;SHT30;49136;47.416;19.402;2023-05-17T01:58:52;14.31;99.99
63051;SHT30;49136;47.416;19.402;2023-05-17T02:01:20;14.28;99.99
63051;SHT30;49136;47.416;19.402;2023-05-17T02:03:49;14.31;99.99
63051;SHT30;49136;47.416;19.402;2023-05-17T02:06:15;14.27;99.99
63051;SHT30;49136;47.416;19.402;2023-05-17T02:08:41;14.28;99.99
63051;SHT30;49136;47.416;19.402;2023-05-17T02:11:06;14.27;99.99
63051;SHT30;49136;47.416;19.402;2023-05-17T02:13:32;14.23;99.99
63051;SHT30;49136;47.416;19.402;2023-05-17T02:16:02;14.20;99.99
63051;SHT30;49136;47.416;19.402;2023-05-17T02:18:28;14.23;99.99
63051;SHT30;49136;47.416;19.402;2023-05-17T02:20:53;14.24;99.99
63051;SHT30;49136;47.416;19.402;2023-05-17T02:23:19;14.24;99.99
63051;SHT30;49136;47.416;19.402;2023-05-17T02:25:44;14.23;99.99
63051;SHT30;49136;47.416;19.402;2023-05-17T02:28:10;14.27;99.99
63051;SHT30;49136;47.416;19.402;2023-05-17T02:30:36;14.28;99.99
63051;SHT30;49136;47.416;19.402;2023-05-17T02:33:05;14.25;99.99
63051;SHT30;49136;47.416;19.402;2023-05-17T02:35:31;14.25;99.99
63051;SHT30;49136;47.416;19.402;2023-05-17T02:37:56;14.30;99.99
63051;SHT30;49136;47.416;19.402;2023-05-17T02:40:21;14.30;99.99
63051;SHT30;49136;47.416;19.402;2023-05-17T02:42:47;14.28;99.99
63051;SHT30;49136;47.416;19.402;2023-05-17T02:45:12;14.27;99.99
63051;SHT30;49136;47.416;19.402;2023-05-17T02:47:38;14.24;99.99
63051;SHT30;49136;47.416;19.402;2023-05-17T02:50:03;14.23;99.99
63051;SHT30;49136;47.416;19.402;2023-05-17T02:52:29;14.23;99.99
63051;SHT30;49136;47.416;19.402;2023-05-17T02:54:54;14.23;99.99
63051;SHT30;49136;47.416;19.402;2023-05-17T02:57:20;14.25;99.99
63051;SHT30;49136;47.416;19.402;2023-05-17T02:59:45;14.21;99.99
63051;SHT30;49136;47.416;19.402;2023-05-17T03:02:11;14.23;99.99
63051;SHT30;49136;47.416;19.402;2023-05-17T03:04:36;14.21;99.99
63051;SHT30;49136;47.416;19.402;2023-05-17T03:07:02;14.20;99.99
63051;SHT30;49136;47.416;19.402;2023-05-17T03:09:27;14.17;99.99
63051;SHT30;49136;47.416;19.402;2023-05-17T03:11:54;14.18;99.99
63051;SHT30;49136;47.416;19.402;2023-05-17T03:14:20;14.16;99.99
63051;SHT30;49136;47.416;19.402;2023-05-17T03:16:45;14.17;99.99
63051;SHT30;49136;47.416;19.402;2023-05-17T03:19:10;14.16;99.99
63051;SHT30;49136;47.416;19.402;2023-05-17T03:21:36;14.16;99.99
63051;SHT30;49136;47.416;19.402;2023-05-17T03:24:01;14.14;99.99
63051;SHT30;49136;47.416;19.402;2023-05-17T03:26:27;14.16;99.99
63051;SHT30;49136;47.416;19.402;2023-05-17T03:28:53;14.13;99.99
63051;SHT30;49136;47.416;19.402;2023-05-17T03:31:20;14.10;99.99
63051;SHT30;49136;47.416;19.402;2023-05-17T03:33:45;14.05;99.99
63051;SHT30;49136;47.416;19.402;2023-05-17T03:36:11;14.05;99.99
63051;SHT30;49136;47.416;19.402;2023-05-17T03:38:36;14.06;99.99
63051;SHT30;49136;47.416;19.402;2023-05-17T03:41:02;14.09;99.99
63051;SHT30;49136;47.416;19.402;2023-05-17T03:43:28;14.09;99.99
63051;SHT30;49136;47.416;19.402;2023-05-17T03:45:53;14.09;99.99
63051;SHT30;49136;47.416;19.402;2023-05-17T03:48:18;14.09;99.99
63051;SHT30;49136;47.416;19.402;2023-05-17T03:50:44;14.10;99.99
63051;SHT30;49136;47.416;19.402;2023-05-17T03:53:09;14.12;99.99
63051;SHT30;49136;47.416;19.402;2023-05-17T03:55:35;14.10;99.99
63051;SHT30;49136;47.416;19.402;2023-05-17T03:58:01;14.13;99.99
63051;SHT30;49136;47.416;19.402;2023-05-17T04:00:26;14.12;99.99
63051;SHT30;49136;47.416;19.402;2023-05-17T04:02:51;14.21;99.99
63051;SHT30;49136;47.416;19.402;2023-05-17T04:05:17;14.16;99.99
63051;SHT30;49136;47.416;19.402;2023-05-17T04:07:43;14.10;99.99
63051;SHT30;49136;47.416;19.402;2023-05-17T04:10:09;14.18;99.99
63051;SHT30;49136;47.416;19.402;2023-05-17T04:12:35;14.17;99.99
63051;SHT30;49136;47.416;19.402;2023-05-17T04:15:01;14.24;99.99
63051;SHT30;49136;47.416;19.402;2023-05-17T04:17:27;14.31;99.99
63051;SHT30;49136;47.416;19.402;2023-05-17T04:19:52;14.28;99.99
63051;SHT30;49136;47.416;19.402;2023-05-17T04:22:19;14.18;99.99
63051;SHT30;49136;47.416;19.402;2023-05-17T04:24:44;14.28;99.99
63051;SHT30;49136;47.416;19.402;2023-05-17T04:27:10;14.34;99.99
63051;SHT30;49136;47.416;19.402;2023-05-17T04:29:35;14.45;99.99
63051;SHT30;49136;47.416;19.402;2023-05-17T04:32:01;14.45;99.99
63051;SHT30;49136;47.416;19.402;2023-05-17T04:34:26;14.44;99.99
63051;SHT30;49136;47.416;19.402;2023-05-17T04:36:52;14.46;99.99
63051;SHT30;49136;47.416;19.402;2023-05-17T04:39:18;14.48;99.99
63051;SHT30;49136;47.416;19.402;2023-05-17T04:41:44;14.51;99.99
63051;SHT30;49136;47.416;19.402;2023-05-17T04:44:09;14.56;99.99
63051;SHT30;49136;47.416;19.402;2023-05-17T04:46:35;14.69;99.99
63051;SHT30;49136;47.416;19.402;2023-05-17T04:49:01;14.75;99.99
63051;SHT30;49136;47.416;19.402;2023-05-17T04:51:28;14.68;99.99
63051;SHT30;49136;47.416;19.402;2023-05-17T04:53:53;14.73;99.99
63051;SHT30;49136;47.416;19.402;2023-05-17T04:56:27;14.71;99.99
63051;SHT30;49136;47.416;19.402;2023-05-17T04:58:54;14.84;99.99
63051;SHT30;49136;47.416;19.402;2023-05-17T05:01:20;14.90;99.99
63051;SHT30;49136;47.416;19.402;2023-05-17T05:03:46;15.04;99.99
63051;SHT30;49136;47.416;19.402;2023-05-17T05:06:11;15.15;99.99
63051;SHT30;49136;47.416;19.402;2023-05-17T05:08:40;15.07;99.99
63051;SHT30;49136;47.416;19.402;2023-05-17T05:11:07;15.03;99.99
63051;SHT30;49136;47.416;19.402;2023-05-17T05:13:32;15.20;99.99
63051;SHT30;49136;47.416;19.402;2023-05-17T05:15:57;15.14;99.99
63051;SHT30;49136;47.416;19.402;2023-05-17T05:18:23;15.24;99.99
63051;SHT30;49136;47.416;19.402;2023-05-17T05:20:48;15.32;99.99
63051;SHT30;49136;47.416;19.402;2023-05-17T05:23:14;15.52;99.99
63051;SHT30;49136;47.416;19.402;2023-05-17T05:25:39;15.60;99.99
63051;SHT30;49136;47.416;19.402;2023-05-17T05:28:05;15.66;99.99
63051;SHT30;49136;47.416;19.402;2023-05-17T05:30:31;15.84;99.99
63051;SHT30;49136;47.416;19.402;2023-05-17T05:32:57;15.83;99.99
63051;SHT30;49136;47.416;19.402;2023-05-17T05:35:22;16.01;99.99
63051;SHT30;49136;47.416;19.402;2023-05-17T05:37:53;15.76;99.99
63051;SHT30;49136;47.416;19.402;2023-05-17T05:40:20;15.87;99.99
63051;SHT30;49136;47.416;19.402;2023-05-17T05:42:45;16.04;99.99
63051;SHT30;49136;47.416;19.402;2023-05-17T05:45:11;16.17;99.99
63051;SHT30;49136;47.416;19.402;2023-05-17T05:47:37;16.01;99.99
63051;SHT30;49136;47.416;19.402;2023-05-17T05:50:03;16.21;99.99
63051;SHT30;49136;47.416;19.402;2023-05-17T05:52:30;16.32;99.99
63051;SHT30;49136;47.416;19.402;2023-05-17T05:54:57;16.42;99.99
63051;SHT30;49136;47.416;19.402;2023-05-17T05:57:30;16.53;99.99
63051;SHT30;49136;47.416;19.402;2023-05-17T05:59:57;16.69;99.99
63051;SHT30;49136;47.416;19.402;2023-05-17T06:02:23;16.57;99.99
63051;SHT30;49136;47.416;19.402;2023-05-17T06:04:49;16.66;99.99
63051;SHT30;49136;47.416;19.402;2023-05-17T06:07:14;16.57;99.99
63051;SHT30;49136;47.416;19.402;2023-05-17T06:09:41;16.52;99.99
63051;SHT30;49136;47.416;19.402;2023-05-17T06:12:06;16.41;99.99
63051;SHT30;49136;47.416;19.402;2023-05-17T06:14:32;16.52;99.99
63051;SHT30;49136;47.416;19.402;2023-05-17T06:16:57;16.43;99.99
63051;SHT30;49136;47.416;19.402;2023-05-17T06:19:23;16.36;99.99
63051;SHT30;49136;47.416;19.402;2023-05-17T06:21:48;16.55;99.99
63051;SHT30;49136;47.416;19.402;2023-05-17T06:24:14;16.67;99.99
63051;SHT30;49136;47.416;19.402;2023-05-17T06:26:41;16.71;99.99
63051;SHT30;49136;47.416;19.402;2023-05-17T06:29:08;16.64;99.99
63051;SHT30;49136;47.416;19.402;2023-05-17T06:31:33;16.36;99.99
63051;SHT30;49136;47.416;19.402;2023-05-17T06:33:59;16.35;99.99
63051;SHT30;49136;47.416;19.402;2023-05-17T06:36:24;16.32;99.99
63051;SHT30;49136;47.416;19.402;2023-05-17T06:38:50;16.39;99.99
63051;SHT30;49136;47.416;19.402;2023-05-17T06:41:15;16.33;99.99
63051;SHT30;49136;47.416;19.402;2023-05-17T06:43:41;16.19;99.99
63051;SHT30;49136;47.416;19.402;2023-05-17T06:46:06;16.18;99.99
63051;SHT30;49136;47.416;19.402;2023-05-17T06:48:31;16.02;99.99
63051;SHT30;49136;47.416;19.402;2023-05-17T06:50:57;16.07;99.99
63051;SHT30;49136;47.416;19.402;2023-05-17T06:53:22;15.93;99.99
63051;SHT30;49136;47.416;19.402;2023-05-17T06:55:48;16.04;99.99
63051;SHT30;49136;47.416;19.402;2023-05-17T06:58:13;16.07;99.99
63051;SHT30;49136;47.416;19.402;2023-05-17T07:00:39;16.18;99.99
63051;SHT30;49136;47.416;19.402;2023-05-17T07:03:04;16.17;99.99
63051;SHT30;49136;47.416;19.402;2023-05-17T07:05:29;16.26;99.99
63051;SHT30;49136;47.416;19.402;2023-05-17T07:07:57;16.18;99.99
63051;SHT30;49136;47.416;19.402;2023-05-17T07:10:23;16.32;99.99
63051;SHT30;49136;47.416;19.402;2023-05-17T07:12:48;16.57;99.99
63051;SHT30;49136;47.416;19.402;2023-05-17T07:15:13;16.33;99.99
63051;SHT30;49136;47.416;19.402;2023-05-17T07:17:39;16.39;99.99
63051;SHT30;49136;47.416;19.402;2023-05-17T07:20:05;16.28;99.99
63051;SHT30;49136;47.416;19.402;2023-05-17T07:22:31;16.46;99.99
63051;SHT30;49136;47.416;19.402;2023-05-17T07:24:56;16.48;99.99
63051;SHT30;49136;47.416;19.402;2023-05-17T07:27:22;16.53;99.99
63051;SHT30;49136;47.416;19.402;2023-05-17T07:29:47;16.69;99.99
63051;SHT30;49136;47.416;19.402;2023-05-17T07:32:13;16.78;99.99
63051;SHT30;49136;47.416;19.402;2023-05-17T07:34:40;16.81;99.99
63051;SHT30;49136;47.416;19.402;2023-05-17T07:37:05;16.84;99.99
63051;SHT30;49136;47.416;19.402;2023-05-17T07:39:30;16.91;99.99
63051;SHT30;49136;47.416;19.402;2023-05-17T07:41:56;17.02;99.99
63051;SHT30;49136;47.416;19.402;2023-05-17T07:44:21;17.11;99.99
63051;SHT30;49136;47.416;19.402;2023-05-17T07:46:47;17.16;99.99
63051;SHT30;49136;47.416;19.402;2023-05-17T07:49:13;17.36;99.99
63051;SHT30;49136;47.416;19.402;2023-05-17T07:51:38;17.46;99.99
63051;SHT30;49136;47.416;19.402;2023-05-17T07:54:04;17.64;99.80
63051;SHT30;49136;47.416;19.402;2023-05-17T07:56:29;17.81;99.67
63051;SHT30;49136;47.416;19.402;2023-05-17T07:58:55;17.71;98.12
63051;SHT30;49136;47.416;19.402;2023-05-17T08:01:22;17.66;99.52
63051;SHT30;49136;47.416;19.402;2023-05-17T08:03:48;17.79;99.60
63051;SHT30;49136;47.416;19.402;2023-05-17T08:06:16;17.75;99.73
63051;SHT30;49136;47.416;19.402;2023-05-17T08:08:42;17.77;99.08
63051;SHT30;49136;47.416;19.402;2023-05-17T08:11:09;17.63;99.57
63051;SHT30;49136;47.416;19.402;2023-05-17T08:13:34;17.46;99.90
63051;SHT30;49136;47.416;19.402;2023-05-17T08:16:00;17.40;99.99
63051;SHT30;49136;47.416;19.402;2023-05-17T08:18:31;17.55;99.99
63051;SHT30;49136;47.416;19.402;2023-05-17T08:20:56;17.81;99.94
63051;SHT30;49136;47.416;19.402;2023-05-17T08:23:22;18.05;99.14
63051;SHT30;49136;47.416;19.402;2023-05-17T08:25:47;18.16;98.65
63051;SHT30;49136;47.416;19.402;2023-05-17T08:28:13;18.17;98.41
63051;SHT30;49136;47.416;19.402;2023-05-17T08:30:38;18.15;98.65
63051;SHT30;49136;47.416;19.402;2023-05-17T08:33:04;18.09;98.59
63051;SHT30;49136;47.416;19.402;2023-05-17T08:35:30;18.20;98.09
63051;SHT30;49136;47.416;19.402;2023-05-17T08:37:56;18.39;97.32
63051;SHT30;49136;47.416;19.402;2023-05-17T08:40:21;18.55;97.29
63051;SHT30;49136;47.416;19.402;2023-05-17T08:42:49;18.74;96.95
63051;SHT30;49136;47.416;19.402;2023-05-17T08:45:15;18.98;96.45
63051;SHT30;49136;47.416;19.402;2023-05-17T08:47:42;19.12;95.74
63051;SHT30;49136;47.416;19.402;2023-05-17T08:50:08;19.06;95.55
63051;SHT30;49136;47.416;19.402;2023-05-17T08:52:34;19.10;95.57
63051;SHT30;49136;47.416;19.402;2023-05-17T08:55:00;19.35;94.49
63051;SHT30;49136;47.416;19.402;2023-05-17T08:57:30;19.69;94.19
63051;SHT30;49136;47.416;19.402;2023-05-17T08:59:57;19.85;93.26
63051;SHT30;49136;47.416;19.402;2023-05-17T09:02:25;19.83;92.30
63051;SHT30;49136;47.416;19.402;2023-05-17T09:04:52;20.12;92.65
63051;SHT30;49136;47.416;19.402;2023-05-17T09:07:23;20.33;91.24
63051;SHT30;49136;47.416;19.402;2023-05-17T09:09:52;20.31;90.86
63051;SHT30;49136;47.416;19.402;2023-05-17T09:12:19;20.52;90.91
63051;SHT30;49136;47.416;19.402;2023-05-17T09:14:44;20.76;89.66
63051;SHT30;49136;47.416;19.402;2023-05-17T09:17:17;20.87;90.12
63051;SHT30;49136;47.416;19.402;2023-05-17T09:19:44;20.90;89.74
63051;SHT30;49136;47.416;19.402;2023-05-17T09:22:13;21.53;89.68
63051;SHT30;49136;47.416;19.402;2023-05-17T09:24:40;21.31;87.03
63051;SHT30;49136;47.416;19.402;2023-05-17T09:27:06;21.34;87.77
63051;SHT30;49136;47.416;19.402;2023-05-17T09:29:32;21.51;87.60
63051;SHT30;49136;47.416;19.402;2023-05-17T09:32:12;21.63;86.61
63051;SHT30;49136;47.416;19.402;2023-05-17T09:34:39;21.86;86.79
63051;SHT30;49136;47.416;19.402;2023-05-17T09:37:15;21.83;85.78
63051;SHT30;49136;47.416;19.402;2023-05-17T09:39:41;22.15;84.97
63051;SHT30;49136;47.416;19.402;2023-05-17T09:42:09;22.25;84.38
63051;SHT30;49136;47.416;19.402;2023-05-17T09:47:30;22.22;84.61
63051;SHT30;49136;47.416;19.402;2023-05-17T09:50:00;21.83;84.84
63051;SHT30;49136;47.416;19.402;2023-05-17T09:52:28;21.66;85.62
63051;SHT30;49136;47.416;19.402;2023-05-17T09:54:58;21.48;86.22
63051;SHT30;49136;47.416;19.402;2023-05-17T09:57:26;21.30;86.67
63051;SHT30;49136;47.416;19.402;2023-05-17T09:59:56;21.07;87.68
63051;SHT30;49136;47.416;19.402;2023-05-17T10:02:26;20.93;87.63
63051;SHT30;49136;47.416;19.402;2023-05-17T10:04:56;20.83;87.64
63051;SHT30;49136;47.416;19.402;2023-05-17T10:07:24;20.73;88.49
63051;SHT30;49136;47.416;19.402;2023-05-17T10:09:51;21.01;88.54
63051;SHT30;49136;47.416;19.402;2023-05-17T10:12:20;21.10;87.16
63051;SHT30;49136;47.416;19.402;2023-05-17T10:14:47;21.24;86.41
63051;SHT30;49136;47.416;19.402;2023-05-17T10:17:13;21.41;86.75
63051;SHT30;49136;47.416;19.402;2023-05-17T10:19:39;21.45;86.36
63051;SHT30;49136;47.416;19.402;2023-05-17T10:22:05;21.37;85.69
63051;SHT30;49136;47.416;19.402;2023-05-17T10:24:33;21.10;86.15
63051;SHT30;49136;47.416;19.402;2023-05-17T10:26:59;21.10;86.40
63051;SHT30;49136;47.416;19.402;2023-05-17T10:29:25;21.20;84.51
63051;SHT30;49136;47.416;19.402;2023-05-17T10:31:50;20.76;86.94
63051;SHT30;49136;47.416;19.402;2023-05-17T10:34:18;20.92;88.00
63051;SHT30;49136;47.416;19.402;2023-05-17T10:36:44;21.24;86.12
63051;SHT30;49136;47.416;19.402;2023-05-17T10:39:09;21.70;85.03
63051;SHT30;49136;47.416;19.402;2023-05-17T10:41:39;22.00;83.53
63051;SHT30;49136;47.416;19.402;2023-05-17T10:44:07;20.96;85.51
63051;SHT30;49136;47.416;19.402;2023-05-17T10:46:35;21.86;85.35
63051;SHT30;49136;47.416;19.402;2023-05-17T10:49:01;22.46;83.17
63051;SHT30;49136;47.416;19.402;2023-05-17T10:51:35;22.76;81.90
63051;SHT30;49136;47.416;19.402;2023-05-17T10:56:32;23.30;81.70
63051;SHT30;49136;47.416;19.402;2023-05-17T11:04:21;23.62;80.36
63051;SHT30;49136;47.416;19.402;2023-05-17T11:06:53;23.63;79.45
63051;SHT30;49136;47.416;19.402;2023-05-17T11:09:21;23.80;79.65
63051;SHT30;49136;47.416;19.402;2023-05-17T11:14:48;23.70;78.61
63051;SHT30;49136;47.416;19.402;2023-05-17T11:17:18;23.91;79.47
63051;SHT30;49136;47.416;19.402;2023-05-17T11:20:06;23.78;80.02
63051;SHT30;49136;47.416;19.402;2023-05-17T11:22:39;23.71;79.73
63051;SHT30;49136;47.416;19.402;2023-05-17T11:25:09;23.59;80.49
63051;SHT30;49136;47.416;19.402;2023-05-17T11:27:37;23.43;80.82
63051;SHT30;49136;47.416;19.402;2023-05-17T11:30:17;23.28;80.56
63051;SHT30;49136;47.416;19.402;2023-05-17T11:32:51;23.03;81.13
63051;SHT30;49136;47.416;19.402;2023-05-17T11:35:22;23.01;81.52
63051;SHT30;49136;47.416;19.402;2023-05-17T11:37:51;23.63;79.91
63051;SHT30;49136;47.416;19.402;2023-05-17T11:40:24;23.90;78.48
63051;SHT30;49136;47.416;19.402;2023-05-17T11:43:09;23.71;77.24
63051;SHT30;49136;47.416;19.402;2023-05-17T11:48:07;23.35;78.81
63051;SHT30;49136;47.416;19.402;2023-05-17T11:50:35;23.12;81.10
63051;SHT30;49136;47.416;19.402;2023-05-17T11:53:04;22.76;81.68
63051;SHT30;49136;47.416;19.402;2023-05-17T11:55:32;22.45;82.58
63051;SHT30;49136;47.416;19.402;2023-05-17T11:57:58;22.57;82.95
63051;SHT30;49136;47.416;19.402;2023-05-17T12:00:24;22.48;82.83
63051;SHT30;49136;47.416;19.402;2023-05-17T12:02:54;22.56;82.44
63051;SHT30;49136;47.416;19.402;2023-05-17T12:05:30;22.48;82.43
63051;SHT30;49136;47.416;19.402;2023-05-17T12:07:56;22.31;82.32
63051;SHT30;49136;47.416;19.402;2023-05-17T12:10:22;22.35;82.03
63051;SHT30;49136;47.416;19.402;2023-05-17T12:12:47;22.59;83.10
63051;SHT30;49136;47.416;19.402;2023-05-17T12:15:17;22.73;83.42
63051;SHT30;49136;47.416;19.402;2023-05-17T12:17:43;22.97;83.56
63051;SHT30;49136;47.416;19.402;2023-05-17T12:20:09;22.87;84.31
63051;SHT30;49136;47.416;19.402;2023-05-17T12:22:52;22.62;84.60
63051;SHT30;49136;47.416;19.402;2023-05-17T12:25:21;22.44;85.05
63051;SHT30;49136;47.416;19.402;2023-05-17T12:27:50;22.53;85.74
63051;SHT30;49136;47.416;19.402;2023-05-17T12:30:16;22.34;85.23
63051;SHT30;49136;47.416;19.402;2023-05-17T12:32:41;21.96;83.94
63051;SHT30;49136;47.416;19.402;2023-05-17T12:35:08;22.24;84.06
63051;SHT30;49136;47.416;19.402;2023-05-17T12:37:33;22.20;84.95
63051;SHT30;49136;47.416;19.402;2023-05-17T12:39:59;22.00;82.84
63051;SHT30;49136;47.416;19.402;2023-05-17T12:42:29;21.98;83.68
63051;SHT30;49136;47.416;19.402;2023-05-17T12:44:58;21.67;84.18
63051;SHT30;49136;47.416;19.402;2023-05-17T12:47:24;21.60;84.16
63051;SHT30;49136;47.416;19.402;2023-05-17T12:49:54;21.55;84.71
63051;SHT30;49136;47.416;19.402;2023-05-17T12:52:20;21.62;84.31
63051;SHT30;49136;47.416;19.402;2023-05-17T12:54:45;21.70;83.40
63051;SHT30;49136;47.416;19.402;2023-05-17T12:57:16;21.67;83.08
63051;SHT30;49136;47.416;19.402;2023-05-17T12:59:47;21.89;83.56
63051;SHT30;49136;47.416;19.402;2023-05-17T13:02:13;22.39;82.55
63051;SHT30;49136;47.416;19.402;2023-05-17T13:04:39;23.05;80.96
63051;SHT30;49136;47.416;19.402;2023-05-17T13:07:05;23.59;80.81
63051;SHT30;49136;47.416;19.402;2023-05-17T13:09:31;23.57;77.62
63051;SHT30;49136;47.416;19.402;2023-05-17T13:17:05;23.46;79.46
63051;SHT30;49136;47.416;19.402;2023-05-17T13:19:31;23.28;78.61
63051;SHT30;49136;47.416;19.402;2023-05-17T13:21:57;23.43;79.16
63051;SHT30;49136;47.416;19.402;2023-05-17T13:24:25;23.60;78.04
63051;SHT30;49136;47.416;19.402;2023-05-17T13:26:50;23.98;77.88
63051;SHT30;49136;47.416;19.402;2023-05-17T13:29:16;23.96;77.98
63051;SHT30;49136;47.416;19.402;2023-05-17T13:31:41;23.88;76.75
63051;SHT30;49136;47.416;19.402;2023-05-17T13:34:07;23.91;76.87
63051;SHT30;49136;47.416;19.402;2023-05-17T13:36:32;23.81;75.91
63051;SHT30;49136;47.416;19.402;2023-05-17T13:38:57;23.42;76.10
63051;SHT30;49136;47.416;19.402;2023-05-17T13:41:25;23.23;77.89
63051;SHT30;49136;47.416;19.402;2023-05-17T13:43:51;23.03;76.44
63051;SHT30;49136;47.416;19.402;2023-05-17T13:46:16;23.21;77.16
63051;SHT30;49136;47.416;19.402;2023-05-17T13:48:42;22.74;77.09
63051;SHT30;49136;47.416;19.402;2023-05-17T13:51:08;22.93;78.17
63051;SHT30;49136;47.416;19.402;2023-05-17T13:53:33;23.03;78.72
63051;SHT30;49136;47.416;19.402;2023-05-17T13:55:59;22.97;76.97
63051;SHT30;49136;47.416;19.402;2023-05-17T13:58:24;22.91;78.23
63051;SHT30;49136;47.416;19.402;2023-05-17T14:00:50;22.91;78.06
63051;SHT30;49136;47.416;19.402;2023-05-17T14:03:16;22.90;77.72
63051;SHT30;49136;47.416;19.402;2023-05-17T14:05:41;23.35;78.51
63051;SHT30;49136;47.416;19.402;2023-05-17T14:08:07;23.94;76.18
63051;SHT30;49136;47.416;19.402;2023-05-17T14:10:34;24.18;76.04
63051;SHT30;49136;47.416;19.402;2023-05-17T14:12:59;24.15;75.28
63051;SHT30;49136;47.416;19.402;2023-05-17T14:15:25;24.15;75.94
63051;SHT30;49136;47.416;19.402;2023-05-17T14:17:52;24.06;75.24
63051;SHT30;49136;47.416;19.402;2023-05-17T14:20:17;23.60;75.94
63051;SHT30;49136;47.416;19.402;2023-05-17T14:22:43;23.97;77.28
63051;SHT30;49136;47.416;19.402;2023-05-17T14:25:08;23.84;76.40
63051;SHT30;49136;47.416;19.402;2023-05-17T14:27:36;23.85;74.30
63051;SHT30;49136;47.416;19.402;2023-05-17T14:30:01;23.53;76.88
63051;SHT30;49136;47.416;19.402;2023-05-17T14:32:27;23.15;76.11
63051;SHT30;49136;47.416;19.402;2023-05-17T14:34:52;22.96;76.35
63051;SHT30;49136;47.416;19.402;2023-05-17T14:37:18;22.57;77.28
63051;SHT30;49136;47.416;19.402;2023-05-17T14:39:46;21.42;79.27
63051;SHT30;49136;47.416;19.402;2023-05-17T14:42:11;21.38;81.59
63051;SHT30;49136;47.416;19.402;2023-05-17T14:44:37;21.34;81.35
63051;SHT30;49136;47.416;19.402;2023-05-17T14:47:06;21.53;81.20
63051;SHT30;49136;47.416;19.402;2023-05-17T14:49:31;21.20;81.60
63051;SHT30;49136;47.416;19.402;2023-05-17T14:51:57;21.21;82.11
63051;SHT30;49136;47.416;19.402;2023-05-17T14:54:22;21.37;81.79
63051;SHT30;49136;47.416;19.402;2023-05-17T14:56:50;21.24;81.55
63051;SHT30;49136;47.416;19.402;2023-05-17T14:59:16;21.00;83.25
63051;SHT30;49136;47.416;19.402;2023-05-17T15:01:42;21.03;83.68
63051;SHT30;49136;47.416;19.402;2023-05-17T15:04:07;20.76;83.66
63051;SHT30;49136;47.416;19.402;2023-05-17T15:06:34;20.69;84.14
63051;SHT30;49136;47.416;19.402;2023-05-17T15:09:00;21.11;83.37
63051;SHT30;49136;47.416;19.402;2023-05-17T15:11:28;21.10;82.01
63051;SHT30;49136;47.416;19.402;2023-05-17T15:13:53;21.27;82.91
63051;SHT30;49136;47.416;19.402;2023-05-17T15:16:19;21.62;82.03
63051;SHT30;49136;47.416;19.402;2023-05-17T15:18:45;21.70;80.62
63051;SHT30;49136;47.416;19.402;2023-05-17T15:21:11;21.52;79.66
63051;SHT30;49136;47.416;19.402;2023-05-17T15:23:36;21.82;80.89
63051;SHT30;49136;47.416;19.402;2023-05-17T15:26:02;20.90;79.30
63051;SHT30;49136;47.416;19.402;2023-05-17T15:28:27;21.15;80.90
63051;SHT30;49136;47.416;19.402;2023-05-17T15:31:03;21.52;80.38
63051;SHT30;49136;47.416;19.402;2023-05-17T15:33:34;21.24;79.31
63051;SHT30;49136;47.416;19.402;2023-05-17T15:36:00;21.11;80.42
63051;SHT30;49136;47.416;19.402;2023-05-17T15:38:26;21.38;80.65
63051;SHT30;49136;47.416;19.402;2023-05-17T15:41:05;21.46;78.60
63051;SHT30;49136;47.416;19.402;2023-05-17T15:43:32;21.30;79.38
63051;SHT30;49136;47.416;19.402;2023-05-17T15:45:58;21.23;79.01
63051;SHT30;49136;47.416;19.402;2023-05-17T15:48:24;21.01;79.48